Terminal Aerodrome Forecast
Issued by NWS Greer, SC

Current Version | Previous Version | Text Only | Print | Product List | Glossary On
Versions: 1 2 3 4 5 6 7 8 9 10 11 12 13 14 15 16 17 18 19 20 21 22 23 24 25 26 27 28 29 30 31 32 33 34 35 36 37 38 39 40 41 42 43 44 45 46 47 48 49 50
000
FTUS42 KGSP 181132
TAFCLT
TAF
KCLT 181132Z 1812/1912 34003KT 5SM BR OVC090
     FM181600 05004KT P6SM BKN060
     FM190500 10005KT P6SM OVC025
     FM190700 10006KT 5SM BR OVC008
     FM191000 12010KT 5SM -SHRA BR OVC008=

USA.gov is the U.S. government's official web portal to all federal, state and local government web resources and services.